Time;durP1;ratioP1;P1;durP2;ratioP2;P2;SDS_P1;SDS_P2;PMS_P1;PMS_P2;Temp;Humidity;BMP_temperature;BMP_pressure;BME280_temperature;BME280_humidity;BME280_pressure;Samples;Min_cycle;Max_cycle;Signal;HPM_P1;HPM_P2
2022/11/06 00:00:44;;;;;;;3.78;2.47;;;12.60;96.70;;;;;;4947159;28;20035;-70
2022/11/06 00:03:12;;;;;;;4.72;2.15;;;12.70;96.70;;;;;;4946656;28;20111;-69
2022/11/06 00:08:31;;;;;;;3.70;2.15;;;12.40;96.70;;;;;;4952778;28;20121;-70
2022/11/06 00:10:59;;;;;;;4.88;2.65;;;12.60;96.70;;;;;;4959102;28;20702;-70
2022/11/06 00:13:31;;;;;;;3.17;2.20;;;12.30;96.70;;;;;;4962560;28;20051;-70
2022/11/06 00:16:02;;;;;;;3.65;2.05;;;12.20;96.70;;;;;;4928479;28;20461;-70
2022/11/06 00:18:31;;;;;;;3.63;2.15;;;12.20;96.70;;;;;;4932106;28;20073;-70
2022/11/06 00:21:04;;;;;;;4.07;2.58;;;12.20;96.70;;;;;;4934921;28;20553;-70
2022/11/06 00:23:33;;;;;;;4.07;2.40;;;12.10;96.70;;;;;;4950140;28;20051;-70
2022/11/06 00:26:05;;;;;;;5.28;2.08;;;12.10;96.70;;;;;;4952203;28;20498;-70
2022/11/06 00:28:35;;;;;;;3.42;1.88;;;12.10;96.70;;;;;;4959891;28;20053;-70
2022/11/06 00:31:04;;;;;;;4.10;2.42;;;12.30;96.70;;;;;;4945691;28;20051;-70
2022/11/06 00:33:33;;;;;;;4.15;2.00;;;12.40;96.70;;;;;;4952665;28;20130;-71
2022/11/06 00:36:03;;;;;;;4.65;2.22;;;12.20;96.70;;;;;;4914972;29;20054;-70
2022/11/06 00:38:32;;;;;;;3.13;1.90;;;12.10;96.70;;;;;;4954431;28;20530;-70
2022/11/06 00:41:02;;;;;;;3.40;1.98;;;12.20;96.70;;;;;;4934575;28;20236;-70
2022/11/06 00:43:32;;;;;;;4.90;2.28;;;12.00;96.70;;;;;;4942207;28;20054;-71
2022/11/06 00:46:03;;;;;;;4.85;1.90;;;11.80;96.70;;;;;;4934635;28;20078;-70
2022/11/06 00:48:32;;;;;;;4.93;2.45;;;11.90;96.70;;;;;;4953790;28;20150;-70
2022/11/06 00:51:02;;;;;;;3.75;2.38;;;11.90;96.70;;;;;;4940870;28;20044;-70
2022/11/06 00:53:30;;;;;;;3.28;1.90;;;12.00;96.70;;;;;;4944160;28;20629;-70
2022/11/06 00:56:04;;;;;;;3.03;1.60;;;12.10;96.70;;;;;;4945073;28;20047;-71
2022/11/06 00:58:33;;;;;;;3.05;1.90;;;11.90;96.70;;;;;;4947659;28;20053;-70
2022/11/06 01:01:11;;;;;;;3.08;1.83;;;11.90;96.70;;;;;;4947215;28;20098;-71
2022/11/06 01:03:40;;;;;;;3.25;1.75;;;11.90;96.70;;;;;;4927969;28;20417;-71
2022/11/06 01:06:11;;;;;;;2.53;1.55;;;11.70;96.70;;;;;;4947471;28;20043;-71
2022/11/06 01:08:41;;;;;;;3.15;1.52;;;11.60;96.70;;;;;;4950898;28;20502;-71
2022/11/06 01:11:14;;;;;;;2.92;1.35;;;11.50;96.70;;;;;;4937642;28;20458;-71
2022/11/06 01:13:43;;;;;;;2.28;1.40;;;11.50;96.70;;;;;;4956746;28;20051;-71
2022/11/06 01:16:14;;;;;;;3.42;1.63;;;11.50;96.70;;;;;;4944197;28;20073;-71
2022/11/06 01:18:43;;;;;;;3.13;1.40;;;11.60;96.70;;;;;;4954658;28;20490;-71
2022/11/06 01:21:14;;;;;;;2.65;1.13;;;11.60;96.70;;;;;;4936002;28;20043;-71
2022/11/06 01:23:42;;;;;;;3.90;0.98;;;11.70;96.70;;;;;;4934539;29;20073;-71
2022/11/06 01:26:13;;;;;;;2.75;1.23;;;11.70;96.70;;;;;;4946568;28;20035;-70
2022/11/06 01:28:41;;;;;;;2.28;1.20;;;11.60;96.70;;;;;;4941450;28;20085;-70
2022/11/06 01:31:14;;;;;;;1.75;1.08;;;11.60;96.70;;;;;;4944787;28;20050;-71
2022/11/06 01:33:43;;;;;;;2.00;0.90;;;11.50;96.70;;;;;;4939151;28;20047;-71
2022/11/06 01:36:12;;;;;;;2.28;1.20;;;11.40;96.70;;;;;;4964092;28;20125;-70
2022/11/06 01:38:42;;;;;;;1.92;1.20;;;11.60;96.70;;;;;;4928986;28;20062;-71
2022/11/06 01:41:12;;;;;;;1.75;1.08;;;11.40;96.70;;;;;;4936935;28;20073;-71
2022/11/06 01:43:45;;;;;;;2.30;1.20;;;11.40;96.70;;;;;;4947465;28;20059;-70
2022/11/06 01:46:16;;;;;;;2.53;1.38;;;11.70;96.70;;;;;;4940548;28;20057;-71
2022/11/06 01:48:49;;;;;;;1.92;1.15;;;11.70;96.70;;;;;;4918129;28;20166;-70
2022/11/06 01:51:37;;;;;;;3.08;1.13;;;11.80;96.70;;;;;;4915510;28;20047;-70
2022/11/06 01:54:07;;;;;;;2.58;1.40;;;11.70;96.70;;;;;;4939023;28;20409;-70
2022/11/06 01:56:37;;;;;;;2.97;1.10;;;11.70;96.70;;;;;;4957729;28;20442;-71
2022/11/06 01:59:08;;;;;;;1.85;0.98;;;11.50;96.70;;;;;;4960208;28;20073;-71
2022/11/06 02:01:38;;;;;;;2.15;1.10;;;11.60;96.70;;;;;;4945536;28;20050;-72
2022/11/06 02:04:17;;;;;;;1.65;1.10;;;11.50;96.70;;;;;;4939335;28;20153;-71
2022/11/06 02:06:48;;;;;;;4.13;1.25;;;11.30;96.70;;;;;;4958261;28;20134;-71
2022/11/06 02:09:17;;;;;;;1.77;1.13;;;11.40;96.70;;;;;;4946413;28;20045;-71
2022/11/06 02:11:59;;;;;;;2.53;1.45;;;11.50;96.70;;;;;;4926952;28;20038;-71
2022/11/06 02:14:33;;;;;;;2.90;1.33;;;11.50;96.70;;;;;;4967020;28;20051;-71
2022/11/06 02:17:10;;;;;;;2.55;1.25;;;11.40;96.70;;;;;;4960354;28;20146;-71
2022/11/06 02:19:53;;;;;;;1.67;1.10;;;11.10;96.70;;;;;;4931840;28;20043;-71
2022/11/06 02:22:36;;;;;;;3.40;1.33;;;10.80;96.70;;;;;;4933239;28;20397;-71
2022/11/06 02:25:19;;;;;;;2.03;1.30;;;10.90;96.70;;;;;;4936113;29;20047;-71
2022/11/06 02:27:56;;;;;;;1.92;1.05;;;11.00;96.70;;;;;;4953392;28;20051;-71
2022/11/06 02:30:24;;;;;;;2.10;1.23;;;11.00;96.70;;;;;;4954948;28;20054;-71
2022/11/06 02:32:56;;;;;;;3.20;1.20;;;11.00;96.70;;;;;;4933680;29;20039;-70
2022/11/06 02:35:30;;;;;;;2.47;1.27;;;11.00;96.70;;;;;;4948419;28;20505;-71
2022/11/06 02:38:03;;;;;;;2.33;1.40;;;11.00;96.70;;;;;;4948999;28;20055;-70
2022/11/06 02:40:35;;;;;;;3.47;1.40;;;11.10;96.70;;;;;;4936916;28;20062;-70
2022/11/06 02:43:07;;;;;;;1.73;1.02;;;10.90;96.70;;;;;;4958569;28;20560;-70
2022/11/06 02:45:52;;;;;;;1.92;1.30;;;10.70;96.70;;;;;;4940003;28;20057;-70
2022/11/06 02:48:25;;;;;;;1.85;1.17;;;10.90;96.70;;;;;;4961876;28;20050;-70
2022/11/06 02:50:56;;;;;;;2.97;1.05;;;11.10;96.70;;;;;;4958872;28;20071;-70
2022/11/06 02:53:26;;;;;;;2.20;1.42;;;11.10;96.70;;;;;;4953844;28;20050;-70
2022/11/06 02:56:01;;;;;;;2.08;1.13;;;11.10;96.70;;;;;;4959095;28;20059;-70
2022/11/06 02:58:36;;;;;;;1.92;1.40;;;11.20;96.70;;;;;;4950588;28;20078;-70
2022/11/06 03:01:14;;;;;;;3.47;1.27;;;11.20;96.70;;;;;;4935099;29;20047;-70
2022/11/06 03:03:48;;;;;;;2.35;1.33;;;11.10;96.70;;;;;;4961676;28;20066;-70
2022/11/06 03:06:23;;;;;;;1.58;1.00;;;11.00;96.70;;;;;;4949611;28;20065;-70
2022/11/06 03:08:56;;;;;;;1.55;1.10;;;10.90;96.70;;;;;;4932739;29;20461;-70
2022/11/06 03:11:26;;;;;;;3.88;1.58;;;11.00;96.70;;;;;;4948589;28;20047;-71
2022/11/06 03:13:59;;;;;;;3.05;1.60;;;11.10;96.70;;;;;;4948715;28;20043;-70
2022/11/06 03:16:32;;;;;;;2.05;1.63;;;10.90;96.70;;;;;;4943397;28;20054;-71
2022/11/06 03:19:06;;;;;;;2.00;1.30;;;10.80;96.70;;;;;;4939553;28;20055;-71
2022/11/06 03:21:42;;;;;;;2.65;1.50;;;10.90;96.70;;;;;;4956794;28;20130;-71
2022/11/06 03:24:15;;;;;;;1.85;1.00;;;10.90;96.70;;;;;;4956870;28;20063;-70
2022/11/06 03:26:47;;;;;;;1.35;0.90;;;10.80;96.70;;;;;;4961701;28;20053;-70
2022/11/06 03:29:21;;;;;;;1.50;0.90;;;10.60;96.70;;;;;;4936269;28;20043;-71
2022/11/06 03:31:52;;;;;;;1.27;0.80;;;10.40;96.70;;;;;;4931168;29;20047;-71
2022/11/06 03:34:28;;;;;;;2.92;0.90;;;10.50;96.70;;;;;;4930586;28;20439;-71
2022/11/06 03:37:02;;;;;;;1.10;0.70;;;10.60;96.70;;;;;;4944918;28;20051;-70
2022/11/06 03:39:35;;;;;;;1.88;0.90;;;10.70;96.70;;;;;;4929329;29;20309;-71
2022/11/06 03:42:05;;;;;;;1.13;0.70;;;10.70;96.70;;;;;;4947005;28;20379;-71
2022/11/06 03:44:39;;;;;;;2.42;0.80;;;10.70;96.70;;;;;;4927466;29;20130;-71
2022/11/06 03:47:11;;;;;;;1.65;0.77;;;10.60;96.70;;;;;;4946725;28;20039;-71
2022/11/06 03:49:49;;;;;;;1.20;0.80;;;10.80;96.70;;;;;;4955473;28;20042;-71
2022/11/06 03:52:23;;;;;;;2.35;0.73;;;10.80;96.70;;;;;;4956329;28;20043;-71
2022/11/06 03:54:55;;;;;;;1.45;0.70;;;10.60;96.70;;;;;;4937839;28;20049;-72
2022/11/06 03:57:27;;;;;;;1.52;0.80;;;10.50;96.70;;;;;;4947499;28;20485;-72
2022/11/06 04:00:00;;;;;;;3.10;0.90;;;10.50;96.70;;;;;;4966162;28;20105;-72
2022/11/06 04:02:43;;;;;;;2.80;0.80;;;10.50;96.70;;;;;;4954279;28;20054;-72
2022/11/06 04:05:15;;;;;;;1.55;1.00;;;10.70;96.70;;;;;;4949241;28;20044;-72
2022/11/06 04:13:56;;;;;;;2.80;1.13;;;10.70;96.70;;;;;;4930107;28;20587;-71
2022/11/06 04:16:13;;;;;;;1.35;0.77;;;10.70;96.70;;;;;;4937492;29;20138;-72
2022/11/06 04:18:41;;;;;;;1.52;0.90;;;10.60;96.70;;;;;;4948690;28;20433;-71
2022/11/06 04:21:21;;;;;;;2.53;0.77;;;10.40;96.70;;;;;;4941937;28;20227;-72
2022/11/06 04:27:07;;;;;;;1.85;0.90;;;10.50;96.70;;;;;;4947911;28;20050;-72
2022/11/06 04:29:47;;;;;;;1.98;0.90;;;10.30;96.70;;;;;;4914211;29;20058;-72
2022/11/06 04:32:26;;;;;;;1.08;0.75;;;10.30;96.70;;;;;;4951609;28;20054;-72
2022/11/06 04:35:02;;;;;;;1.63;0.70;;;10.30;96.70;;;;;;4939819;28;20043;-71
2022/11/06 04:37:35;;;;;;;1.90;0.80;;;10.20;96.70;;;;;;4933178;29;20154;-72
2022/11/06 04:40:09;;;;;;;1.42;0.80;;;10.10;96.70;;;;;;4930041;28;20074;-71
2022/11/06 04:42:44;;;;;;;1.00;0.70;;;10.20;96.70;;;;;;4929489;28;20078;-72
2022/11/06 04:45:17;;;;;;;2.30;0.80;;;10.10;96.70;;;;;;4947139;28;20073;-72
2022/11/06 04:47:48;;;;;;;1.95;1.05;;;10.00;96.70;;;;;;4931615;29;20494;-72
2022/11/06 04:50:19;;;;;;;1.85;1.00;;;9.90;96.70;;;;;;4957036;28;20053;-72
2022/11/06 04:52:48;;;;;;;2.00;1.10;;;10.00;96.70;;;;;;4960600;28;20047;-72
2022/11/06 04:55:17;;;;;;;2.90;1.55;;;10.20;96.70;;;;;;4940039;28;20105;-72
2022/11/06 04:57:45;;;;;;;2.45;1.52;;;9.90;96.70;;;;;;4961512;28;20097;-72
2022/11/06 05:00:15;;;;;;;4.22;1.95;;;9.90;96.70;;;;;;4933350;29;20077;-72
2022/11/06 05:02:43;;;;;;;3.63;2.03;;;10.00;96.70;;;;;;4946138;28;20505;-72
2022/11/06 05:05:12;;;;;;;4.82;1.73;;;10.00;96.70;;;;;;4948129;28;20486;-72
2022/11/06 05:07:40;;;;;;;3.65;1.73;;;10.00;96.70;;;;;;4947100;28;20126;-72
2022/11/06 05:10:09;;;;;;;2.58;1.63;;;10.10;96.70;;;;;;4949726;28;20043;-72
2022/11/06 05:12:37;;;;;;;4.35;2.40;;;10.30;96.70;;;;;;4938345;29;20075;-72
2022/11/06 05:15:06;;;;;;;3.97;1.75;;;10.40;96.70;;;;;;4956322;28;20105;-71
2022/11/06 05:17:34;;;;;;;3.60;1.88;;;10.30;96.70;;;;;;4947380;28;20050;-72
2022/11/06 05:20:04;;;;;;;2.53;1.70;;;10.30;96.70;;;;;;4958238;28;20049;-72
2022/11/06 05:25:20;;;;;;;2.10;1.45;;;10.30;96.70;;;;;;4949992;28;20516;-72
2022/11/06 05:28:08;;;;;;;5.70;1.80;;;10.10;96.70;;;;;;4959526;28;20114;-72
2022/11/06 05:30:36;;;;;;;2.60;1.58;;;9.70;96.70;;;;;;4928422;28;20417;-72
2022/11/06 05:33:04;;;;;;;2.38;1.70;;;9.60;96.70;;;;;;4945959;28;20035;-72
2022/11/06 05:35:32;;;;;;;3.13;1.50;;;9.90;96.70;;;;;;4953214;28;20051;-72
2022/11/06 05:38:02;;;;;;;26.63;12.60;;;10.00;96.70;;;;;;4948917;28;20043;-73
2022/11/06 05:40:30;;;;;;;16.17;9.30;;;9.90;96.70;;;;;;4928837;28;20065;-72
2022/11/06 05:42:58;;;;;;;23.05;12.23;;;9.70;96.70;;;;;;4947571;28;20157;-72
2022/11/06 05:45:26;;;;;;;20.80;11.13;;;9.70;96.70;;;;;;4952416;28;20050;-71
2022/11/06 05:47:54;;;;;;;20.67;11.77;;;9.90;96.70;;;;;;4941210;28;20106;-72
2022/11/06 05:50:22;;;;;;;22.50;11.98;;;9.90;96.70;;;;;;4913387;29;20146;-72
2022/11/06 05:52:50;;;;;;;22.35;12.40;;;9.90;96.70;;;;;;4928887;28;20540;-72
2022/11/06 05:55:19;;;;;;;24.38;13.10;;;10.00;96.70;;;;;;4958462;28;20565;-71
2022/11/06 05:57:47;;;;;;;19.42;11.32;;;10.10;96.70;;;;;;4950776;28;20066;-71
2022/11/06 06:00:15;;;;;;;18.83;9.82;;;10.10;96.70;;;;;;4958746;28;20810;-71
2022/11/06 06:02:43;;;;;;;12.50;7.47;;;10.10;96.70;;;;;;4944935;28;20039;-71
2022/11/06 06:05:11;;;;;;;9.50;5.10;;;10.10;96.70;;;;;;4923595;29;20448;-72
2022/11/06 06:07:39;;;;;;;8.80;5.03;;;9.90;96.70;;;;;;4948325;28;20035;-72
2022/11/06 06:10:08;;;;;;;13.65;7.00;;;9.80;96.70;;;;;;4945930;28;20055;-71
2022/11/06 06:12:38;;;;;;;16.20;7.45;;;9.70;96.70;;;;;;4928024;29;20075;-71
2022/11/06 06:15:09;;;;;;;12.70;6.30;;;9.90;96.70;;;;;;4954252;28;20047;-71
2022/11/06 06:17:37;;;;;;;11.85;5.55;;;10.00;96.70;;;;;;4938154;28;20141;-71
2022/11/06 06:20:06;;;;;;;11.93;6.03;;;9.70;96.70;;;;;;4953828;28;20059;-71
2022/11/06 06:22:34;;;;;;;5.80;3.45;;;9.70;96.70;;;;;;4927797;28;20082;-71
2022/11/06 06:25:02;;;;;;;5.10;3.22;;;9.90;96.70;;;;;;4951654;28;20049;-71
2022/11/06 06:27:30;;;;;;;5.00;2.78;;;9.90;96.70;;;;;;4920016;28;20556;-71
2022/11/06 06:30:00;;;;;;;3.85;2.33;;;9.90;96.70;;;;;;4942719;28;20047;-71
2022/11/06 06:32:27;;;;;;;3.97;2.13;;;9.80;96.70;;;;;;4934818;28;20039;-71
2022/11/06 06:34:55;;;;;;;2.85;1.35;;;9.90;96.70;;;;;;4946963;28;20047;-71
2022/11/06 06:37:23;;;;;;;1.75;1.15;;;9.90;96.70;;;;;;4953202;28;20595;-71
2022/11/06 06:39:51;;;;;;;1.75;1.00;;;9.80;96.70;;;;;;4975732;28;20545;-71
2022/11/06 06:42:19;;;;;;;2.50;1.50;;;9.90;96.70;;;;;;4939785;28;20069;-71
2022/11/06 06:44:47;;;;;;;3.60;1.70;;;9.70;96.70;;;;;;4959987;28;20532;-71
2022/11/06 06:47:16;;;;;;;3.72;2.38;;;9.60;96.70;;;;;;4936313;28;20139;-71
2022/11/06 06:49:44;;;;;;;5.05;2.53;;;9.70;96.70;;;;;;4938863;28;20043;-71
2022/11/06 06:52:12;;;;;;;4.80;1.65;;;9.80;96.70;;;;;;4931420;28;20070;-71
2022/11/06 06:54:40;;;;;;;4.93;2.45;;;9.80;96.70;;;;;;4931480;29;20110;-71
2022/11/06 06:57:08;;;;;;;3.42;1.40;;;10.00;96.70;;;;;;4955574;28;20043;-71
2022/11/06 06:59:36;;;;;;;1.83;1.40;;;10.10;96.70;;;;;;4950687;28;20127;-71
2022/11/06 07:02:04;;;;;;;2.10;1.20;;;10.10;96.70;;;;;;4958264;28;20536;-71
2022/11/06 07:04:34;;;;;;;2.28;1.20;;;10.10;96.70;;;;;;4937749;28;20061;-71
2022/11/06 07:07:02;;;;;;;2.53;0.90;;;10.10;96.70;;;;;;4931211;29;20410;-71
2022/11/06 07:09:31;;;;;;;2.50;1.10;;;10.20;96.70;;;;;;4951267;28;20038;-72
2022/11/06 07:11:59;;;;;;;2.63;1.35;;;10.30;96.70;;;;;;4949209;28;20066;-71
2022/11/06 07:14:27;;;;;;;3.85;1.38;;;10.40;96.70;;;;;;4950612;28;20105;-71
2022/11/06 07:16:55;;;;;;;4.70;1.75;;;10.50;96.70;;;;;;4928242;28;20637;-71
2022/11/06 07:19:23;;;;;;;4.97;1.60;;;10.50;96.70;;;;;;4933371;28;20474;-71
2022/11/06 07:21:53;;;;;;;4.80;1.83;;;10.50;96.70;;;;;;4949252;28;20090;-71
2022/11/06 07:24:21;;;;;;;3.20;1.95;;;10.60;96.70;;;;;;4930544;29;20121;-71
2022/11/06 07:26:49;;;;;;;3.22;1.42;;;10.70;96.70;;;;;;4931506;29;20067;-71
2022/11/06 07:29:17;;;;;;;3.35;1.65;;;10.70;96.70;;;;;;4953826;28;20054;-71
2022/11/06 07:31:45;;;;;;;3.42;1.65;;;10.70;96.70;;;;;;4945651;28;20612;-71
2022/11/06 07:34:13;;;;;;;1.27;0.80;;;10.70;96.70;;;;;;4954293;28;20412;-71
2022/11/06 07:36:41;;;;;;;2.08;1.23;;;10.80;96.70;;;;;;4950300;28;20047;-72
2022/11/06 07:39:10;;;;;;;2.22;1.17;;;10.90;96.70;;;;;;4938342;28;20078;-71
2022/11/06 07:41:38;;;;;;;2.17;1.35;;;10.90;96.70;;;;;;4966986;28;20054;-71
2022/11/06 07:44:06;;;;;;;1.38;0.88;;;11.00;96.70;;;;;;4931066;29;20067;-71
2022/11/06 07:46:34;;;;;;;1.73;0.90;;;11.10;96.70;;;;;;4940450;29;20074;-71
2022/11/06 07:49:02;;;;;;;2.22;1.08;;;11.30;96.70;;;;;;4933711;28;20043;-71
2022/11/06 07:51:31;;;;;;;2.75;1.10;;;11.30;96.70;;;;;;4929040;29;20043;-71
2022/11/06 07:53:59;;;;;;;4.95;1.45;;;11.30;96.70;;;;;;4927626;29;20134;-71
2022/11/06 07:56:29;;;;;;;3.90;1.38;;;11.40;96.70;;;;;;4927945;29;20074;-71
2022/11/06 07:58:57;;;;;;;4.70;1.80;;;11.40;96.70;;;;;;4923640;29;20814;-71
2022/11/06 08:01:25;;;;;;;2.55;1.33;;;11.30;96.70;;;;;;4942489;28;20501;-71
2022/11/06 08:03:53;;;;;;;3.42;1.33;;;11.30;96.70;;;;;;4926833;29;20055;-71
2022/11/06 08:06:21;;;;;;;2.80;1.17;;;11.40;96.70;;;;;;4927281;29;20063;-72
2022/11/06 08:08:50;;;;;;;3.20;1.27;;;11.60;96.70;;;;;;4957172;28;20055;-72
2022/11/06 08:11:26;;;;;;;2.72;1.10;;;11.60;96.70;;;;;;4940990;28;20531;-71
2022/11/06 08:13:58;;;;;;;3.65;1.00;;;11.70;96.70;;;;;;4929343;29;20059;-72
2022/11/06 08:16:26;;;;;;;4.70;1.20;;;11.70;96.70;;;;;;4926596;29;20043;-71
2022/11/06 08:18:55;;;;;;;3.88;2.20;;;11.80;96.70;;;;;;4937475;29;20043;-72
2022/11/06 08:21:23;;;;;;;4.47;2.00;;;11.90;96.70;;;;;;4936556;28;20083;-72
2022/11/06 08:23:50;;;;;;;2.17;1.65;;;11.90;96.70;;;;;;4933053;29;20059;-71
2022/11/06 08:26:19;;;;;;;2.95;1.65;;;11.70;96.70;;;;;;4940874;28;20051;-71
2022/11/06 08:28:47;;;;;;;2.53;1.83;;;11.60;96.70;;;;;;4929035;29;20529;-72
2022/11/06 08:31:19;;;;;;;4.07;1.40;;;11.60;96.70;;;;;;4934246;29;20054;-71
2022/11/06 08:33:48;;;;;;;2.45;1.40;;;11.70;96.70;;;;;;4936391;29;20055;-71
2022/11/06 08:36:16;;;;;;;3.50;1.50;;;11.70;96.70;;;;;;4934740;28;20051;-73
2022/11/06 08:38:46;;;;;;;2.00;1.17;;;11.80;96.70;;;;;;4928097;29;20043;-70
2022/11/06 08:41:14;;;;;;;3.30;1.23;;;11.80;96.70;;;;;;4932841;28;20111;-70
2022/11/06 08:43:42;;;;;;;2.58;1.58;;;11.90;96.70;;;;;;4896713;29;20060;-70
2022/11/06 08:46:11;;;;;;;4.28;1.13;;;12.10;96.70;;;;;;4904254;29;20149;-70
2022/11/06 08:48:40;;;;;;;3.25;1.33;;;12.20;96.70;;;;;;4915554;29;20585;-71
2022/11/06 08:51:08;;;;;;;5.45;1.58;;;12.40;96.70;;;;;;4918124;29;20050;-70
2022/11/06 08:53:36;;;;;;;3.83;1.52;;;12.50;96.70;;;;;;4919641;29;20050;-71
2022/11/06 08:56:05;;;;;;;6.80;1.73;;;12.60;96.70;;;;;;4914115;29;20616;-71
2022/11/06 08:58:33;;;;;;;6.68;1.67;;;12.80;96.70;;;;;;4919544;29;20040;-71
2022/11/06 09:01:01;;;;;;;9.25;1.98;;;12.90;96.70;;;;;;4906689;29;20055;-70
2022/11/06 09:03:29;;;;;;;8.43;2.35;;;13.10;96.70;;;;;;4908084;29;20040;-72
2022/11/06 09:06:11;;;;;;;3.67;1.85;;;13.10;96.70;;;;;;4898608;29;20111;-71
2022/11/06 09:08:40;;;;;;;6.05;2.63;;;13.10;96.70;;;;;;4912176;29;20426;-72
2022/11/06 09:11:10;;;;;;;5.47;2.58;;;13.20;96.70;;;;;;4921753;29;20035;-72
2022/11/06 09:13:39;;;;;;;4.50;2.13;;;13.30;96.70;;;;;;4902243;29;20110;-72
2022/11/06 09:16:07;;;;;;;5.10;2.42;;;13.40;96.70;;;;;;4924126;29;20248;-71
2022/11/06 09:18:42;;;;;;;3.58;2.10;;;13.60;96.70;;;;;;4906894;29;20162;-72
2022/11/06 09:21:11;;;;;;;4.70;2.30;;;13.70;96.70;;;;;;4909932;29;20071;-72
2022/11/06 09:23:40;;;;;;;4.38;2.00;;;13.90;96.70;;;;;;4908820;29;20138;-71
2022/11/06 09:26:07;;;;;;;4.85;2.75;;;13.90;96.70;;;;;;4910761;29;20079;-72
2022/11/06 09:28:35;;;;;;;4.00;2.80;;;14.00;96.70;;;;;;4911556;29;20130;-72
2022/11/06 09:31:04;;;;;;;5.78;2.40;;;14.10;96.70;;;;;;4916447;29;20133;-72
2022/11/06 09:33:32;;;;;;;6.35;2.65;;;14.30;96.70;;;;;;4924648;29;20040;-72
2022/11/06 09:36:03;;;;;;;4.47;2.67;;;14.40;96.70;;;;;;4919995;29;20048;-72
2022/11/06 09:38:33;;;;;;;5.03;2.40;;;14.40;96.70;;;;;;4919903;29;20139;-72
2022/11/06 09:41:02;;;;;;;5.50;2.78;;;14.60;96.70;;;;;;4915337;29;20499;-72
2022/11/06 09:43:43;;;;;;;6.68;2.63;;;14.70;96.70;;;;;;4931042;29;20051;-71
2022/11/06 09:46:34;;;;;;;5.22;2.50;;;14.90;96.70;;;;;;4944459;29;20141;-73
2022/11/06 09:49:15;;;;;;;3.55;2.33;;;15.10;96.70;;;;;;4929555;29;20052;-73
2022/11/06 09:51:51;;;;;;;4.47;2.28;;;15.30;96.70;;;;;;4930578;29;20135;-73
2022/11/06 09:54:25;;;;;;;3.92;1.60;;;15.40;96.70;;;;;;4953856;28;20056;-74
2022/11/06 09:57:01;;;;;;;3.47;2.17;;;15.50;96.70;;;;;;4925802;29;20079;-73
2022/11/06 09:59:34;;;;;;;3.65;1.95;;;15.60;96.70;;;;;;4968327;28;20048;-75
2022/11/06 10:02:19;;;;;;;4.85;1.83;;;15.70;96.70;;;;;;4915984;29;20147;-74
2022/11/06 10:04:53;;;;;;;2.90;1.85;;;15.90;96.70;;;;;;4923352;29;20047;-75
2022/11/06 10:07:26;;;;;;;2.83;1.80;;;15.90;96.70;;;;;;4924753;29;20046;-74
2022/11/06 10:09:56;;;;;;;3.38;2.25;;;16.00;96.70;;;;;;4906200;29;20072;-74
2022/11/06 10:12:34;;;;;;;3.90;2.33;;;16.10;96.70;;;;;;4908077;29;20518;-74
2022/11/06 10:15:15;;;;;;;2.92;1.85;;;16.20;96.70;;;;;;4913244;29;20178;-74
2022/11/06 10:17:53;;;;;;;2.90;1.58;;;16.30;96.70;;;;;;4929197;29;20048;-73
2022/11/06 10:20:29;;;;;;;4.53;2.50;;;16.40;96.70;;;;;;4926839;29;20055;-73
2022/11/06 10:23:03;;;;;;;3.83;1.80;;;16.50;96.70;;;;;;4928948;29;20047;-74
2022/11/06 10:25:52;;;;;;;3.22;1.73;;;16.60;96.70;;;;;;4937283;28;20094;-74
2022/11/06 10:28:54;;;;;;;3.33;1.55;;;16.70;96.70;;;;;;4921958;29;20071;-74
2022/11/06 10:31:29;;;;;;;4.78;2.22;;;16.80;96.70;;;;;;4929174;29;20051;-73
2022/11/06 10:34:01;;;;;;;4.03;1.92;;;17.10;96.70;;;;;;4934883;29;20086;-73
2022/11/06 10:36:34;;;;;;;6.68;3.13;;;17.20;96.70;;;;;;4937742;29;20047;-74
2022/11/06 10:39:09;;;;;;;2.75;2.00;;;17.30;96.70;;;;;;4939025;29;20043;-73
2022/11/06 10:41:40;;;;;;;4.30;2.65;;;17.40;96.70;;;;;;4939134;28;20070;-74
2022/11/06 10:44:16;;;;;;;6.13;2.22;;;17.40;96.70;;;;;;4925415;29;20147;-74
2022/11/06 10:46:50;;;;;;;2.90;1.60;;;17.50;96.70;;;;;;4918322;29;20051;-73
2022/11/06 10:49:25;;;;;;;5.28;2.90;;;17.60;96.70;;;;;;4901469;29;20292;-73
2022/11/06 10:52:14;;;;;;;5.53;1.80;;;17.70;96.70;;;;;;4907663;29;20123;-74
2022/11/06 10:54:55;;;;;;;2.22;1.20;;;17.70;96.70;;;;;;4907233;29;20108;-73
2022/11/06 10:57:34;;;;;;;3.35;1.20;;;17.80;96.70;;;;;;4911099;29;20121;-74
2022/11/06 11:00:03;;;;;;;3.70;1.25;;;17.90;96.70;;;;;;4907982;29;20422;-73
2022/11/06 11:02:34;;;;;;;3.25;1.20;;;18.20;96.70;;;;;;4908692;29;20472;-74
2022/11/06 11:05:12;;;;;;;1.50;0.80;;;18.20;96.70;;;;;;4914570;29;20139;-71
2022/11/06 11:07:41;;;;;;;2.92;1.02;;;18.30;96.70;;;;;;4921499;29;20051;-72
2022/11/06 11:10:26;;;;;;;1.08;0.70;;;18.50;96.70;;;;;;4909237;29;20876;-72
2022/11/06 11:12:59;;;;;;;1.65;0.80;;;18.70;96.70;;;;;;4903028;29;20063;-72
2022/11/06 11:15:42;;;;;;;2.17;1.08;;;18.80;96.70;;;;;;4906209;29;20130;-72
2022/11/06 11:18:21;;;;;;;1.50;0.70;;;18.90;96.70;;;;;;4894941;29;20513;-73
2022/11/06 11:21:03;;;;;;;1.88;0.93;;;18.80;96.70;;;;;;4913000;29;20127;-73
2022/11/06 11:23:31;;;;;;;3.60;1.20;;;18.90;96.70;;;;;;4902291;29;20127;-73
2022/11/06 11:26:23;;;;;;;3.90;1.52;;;19.10;96.70;;;;;;4913809;29;20040;-74
2022/11/06 11:28:55;;;;;;;7.32;1.25;;;19.00;96.70;;;;;;4918576;29;20048;-73
2022/11/06 11:31:29;;;;;;;3.75;0.93;;;19.10;96.70;;;;;;4908590;29;20050;-75
2022/11/06 11:34:01;;;;;;;2.90;0.80;;;19.10;96.70;;;;;;4915911;29;20040;-73
2022/11/06 11:36:48;;;;;;;3.08;0.90;;;19.10;96.70;;;;;;4928562;29;20051;-74
2022/11/06 11:39:18;;;;;;;1.02;0.60;;;19.10;96.70;;;;;;4919360;29;20051;-73
2022/11/06 11:41:47;;;;;;;1.90;0.60;;;19.30;96.70;;;;;;4902983;29;20059;-74
2022/11/06 11:44:18;;;;;;;1.13;0.50;;;19.30;96.70;;;;;;4926756;29;20139;-74
2022/11/06 11:46:48;;;;;;;1.35;0.68;;;19.40;96.70;;;;;;4937083;29;20491;-74
2022/11/06 11:49:26;;;;;;;1.55;0.50;;;19.30;96.70;;;;;;4935725;29;20059;-74
2022/11/06 11:51:57;;;;;;;0.85;0.32;;;19.30;96.70;;;;;;4923028;29;20047;-73
2022/11/06 11:54:29;;;;;;;1.58;0.40;;;19.30;96.70;;;;;;4925303;29;20051;-73
2022/11/06 11:57:00;;;;;;;1.48;0.40;;;19.20;96.70;;;;;;4926610;29;20111;-74
2022/11/06 11:59:42;;;;;;;0.95;0.40;;;19.30;96.70;;;;;;4929477;29;20046;-74
2022/11/06 12:02:18;;;;;;;1.00;0.52;;;19.30;96.70;;;;;;4940034;28;20077;-74
2022/11/06 12:04:57;;;;;;;3.67;0.50;;;19.30;96.70;;;;;;4927647;29;20082;-74
2022/11/06 12:07:28;;;;;;;1.10;0.40;;;19.40;96.70;;;;;;4928320;29;20043;-74
2022/11/06 12:09:58;;;;;;;5.03;0.60;;;19.60;96.70;;;;;;4925979;29;20498;-75
2022/11/06 12:12:31;;;;;;;1.65;0.50;;;19.90;96.70;;;;;;4910554;29;20056;-75
2022/11/06 12:15:18;;;;;;;1.10;0.40;;;20.10;96.70;;;;;;4939210;29;20051;-78
2022/11/06 12:17:52;;;;;;;2.75;0.35;;;20.20;96.70;;;;;;4918736;29;20139;-75
2022/11/06 12:20:24;;;;;;;1.48;0.63;;;20.30;96.70;;;;;;4937126;29;20178;-73
2022/11/06 12:22:55;;;;;;;1.60;0.45;;;20.30;96.70;;;;;;4927899;29;20051;-74
2022/11/06 12:25:29;;;;;;;1.85;0.63;;;20.40;96.70;;;;;;4923631;29;20044;-73
2022/11/06 12:28:00;;;;;;;1.73;0.50;;;20.50;96.70;;;;;;4942556;28;20052;-73
2022/11/06 12:30:32;;;;;;;1.05;0.30;;;20.60;96.70;;;;;;4937680;28;20047;-73
2022/11/06 12:33:09;;;;;;;0.68;0.40;;;20.60;96.70;;;;;;4927367;29;20067;-74
2022/11/06 12:35:41;;;;;;;1.05;0.30;;;20.60;96.70;;;;;;4926598;29;20044;-76
2022/11/06 12:38:23;;;;;;;1.15;0.30;;;20.60;96.70;;;;;;4922569;29;20051;-74
2022/11/06 12:40:58;;;;;;;1.00;0.32;;;20.70;96.70;;;;;;4924844;29;20102;-75
2022/11/06 12:43:36;;;;;;;1.08;0.50;;;20.80;96.70;;;;;;4914613;29;20429;-75
2022/11/06 12:46:33;;;;;;;3.30;0.57;;;20.90;96.70;;;;;;4931323;29;20044;-73
2022/11/06 12:49:24;;;;;;;2.85;0.43;;;20.80;96.70;;;;;;4944711;28;20091;-75
2022/11/06 12:52:07;;;;;;;2.00;0.60;;;20.50;96.70;;;;;;4934784;29;20101;-75
2022/11/06 12:54:53;;;;;;;0.82;0.50;;;20.60;96.70;;;;;;4918099;29;20055;-76
2022/11/06 12:57:33;;;;;;;1.70;0.60;;;20.60;96.70;;;;;;4930316;29;20047;-75
2022/11/06 13:00:08;;;;;;;1.00;0.40;;;20.70;96.70;;;;;;4926533;29;20118;-75
2022/11/06 13:03:17;;;;;;;1.83;0.50;;;20.70;96.70;;;;;;4936004;29;20438;-76
2022/11/06 13:05:54;;;;;;;1.17;0.60;;;20.80;96.70;;;;;;4898408;29;20059;-76
2022/11/06 13:08:32;;;;;;;1.52;0.50;;;20.80;96.70;;;;;;4933705;29;20051;-75
2022/11/06 13:11:21;;;;;;;0.90;0.38;;;20.70;96.70;;;;;;4923649;29;20051;-73
2022/11/06 13:14:02;;;;;;;1.40;0.60;;;20.60;96.70;;;;;;4919976;29;20051;-74
2022/11/06 13:16:38;;;;;;;0.65;0.40;;;20.60;96.70;;;;;;4961814;28;20601;-73
2022/11/06 13:19:14;;;;;;;2.22;0.30;;;20.60;96.70;;;;;;4963319;28;20063;-73
2022/11/06 13:22:06;;;;;;;1.63;0.30;;;20.60;96.70;;;;;;4912425;29;20079;-74
2022/11/06 13:24:40;;;;;;;0.95;0.40;;;20.60;96.70;;;;;;4925757;29;20043;-74
2022/11/06 13:27:18;;;;;;;1.38;0.47;;;20.70;96.70;;;;;;4921938;29;20047;-74
2022/11/06 13:29:47;;;;;;;1.40;0.50;;;20.80;96.70;;;;;;4931058;29;20070;-73